Arctic Fury — WDE9335 — position and weather

sailwx.info

Track history (hours):
 
Tides and Currents Weather Stations Pressure Air Temp Water Temp Dewpoint Dewpoint Depression Visibility Wind Speed Wind Dir Waves Ship Positions

Arctic Fury

Owner: Fury Group Inc, Seattle, WA. More information available from US FCC via Universal Licensing System and Coast Guard Vessel Documentation Center.

Last reported at 2015-May-22 22:29 UTC. Time now 2015-May-22 23:45 UTC.
Position N 47°08' W 124°59'.

Length 43 m; draft 5 m.

Type: Fishing. MMSI: 366468000.

Date/timePositionNaut miles runAvg speedWind from/ knotsBaromVisibWave heightAir tempDewpointWater temp
2015-May-22 22:29N 47°08' W 124°59'8 8.6
2015-May-22 21:33N 47°15' W 124°54'4 8.8
2015-May-22 21:08N 47°18' W 124°52'6 9.0
2015-May-22 20:27N 47°24' W 124°49'1 1.1
2015-May-22 19:32N 47°23' W 124°48'4 4.0
2015-May-22 18:33N 47°27' W 124°50'8 8.3
2015-May-22 17:32N 47°31' W 125°01'7 6.2
2015-May-22 16:29N 47°37' W 125°06'11 9.2
2015-May-22 15:15N 47°48' W 125°09'6 3.3
2015-May-22 13:20N 47°53' W 125°14'5 2.8
2015-May-22 11:30N 47°50' W 125°08'2 0.5
2015-May-22 07:29N 47°51' W 125°10'1 1.1
2015-May-22 06:33N 47°51' W 125°12'2 0.4
2015-May-22 03:08N 47°53' W 125°13'2 0.8
2015-May-22 00:09N 47°51' W 125°15'1 1.4
2015-May-21 23:33N 47°52' W 125°15'1 0.5
2015-May-21 21:32N 47°53' W 125°15'2 3.3
2015-May-21 20:50N 47°51' W 125°12'1 3.2
2015-May-21 20:31N 47°51' W 125°11'3 3.3
2015-May-21 19:33N 47°49' W 125°07'0 0.3
2015-May-21 18:24N 47°49' W 125°07'3 3.5
2015-May-21 17:33N 47°50' W 125°11'3 2.7
2015-May-21 16:37N 47°52' W 125°13'0 2.0
2015-May-21 16:33N 47°52' W 125°13'3 2.9
2015-May-21 15:33N 47°55' W 125°15'2 2.6
2015-May-21 14:52N 47°56' W 125°17'2 4.7
2015-May-21 14:31N 47°55' W 125°16'5 4.7
2015-May-21 13:33N 47°51' W 125°11'1 3.1
2015-May-21 13:11N 47°51' W 125°10'4 2.3
2015-May-21 11:33N 47°52' W 125°14'1 0.6
2015-May-21 10:33N 47°53' W 125°15'1 0.6
2015-May-21 09:30N 47°53' W 125°16'1 0.6
2015-May-21 07:19N 47°54' W 125°17'2 2.7
2015-May-21 06:33N 47°53' W 125°16'3 2.9
2015-May-21 05:31N 47°51' W 125°12'1 0.9
2015-May-21 04:18N 47°50' W 125°10'3 2.7
2015-May-21 03:23N 47°52' W 125°13'2 0.2
2015-May-20 18:04N 47°51' W 125°11'0 0.0
2015-May-20 18:04N 47°51' W 125°11'3 1.1
2015-May-20 15:25N 47°49' W 125°07'5 5.8
2015-May-20 14:31N 47°53' W 125°13'17 3.4
2015-May-20 09:23N 47°37' W 125°02'4 0.5
2015-May-20 01:16N 47°33' W 125°05'2 2.7
2015-May-20 00:33N 47°35' W 125°06'3 2.9
2015-May-19 23:33N 47°37' W 125°07'2 0.1
2015-May-19 06:05N 47°40' W 125°08'34 2.2
2015-May-18 14:28N 47°08' W 124°50'10 9.2
2015-May-18 13:24N 46°58' W 124°52'8 9.2
2015-May-18 12:30N 46°50' W 124°53'8 8.8
2015-May-18 11:33N 46°42' W 124°52'9 9.1
2015-May-18 10:33N 46°33' W 124°52'9 9.1
2015-May-18 09:33N 46°24' W 124°52'9 9.3
2015-May-18 08:33N 46°14' W 124°52'9 9.2
2015-May-18 07:33N 46°05' W 124°52'10 9.2
2015-May-18 06:30N 45°55' W 124°53'9 9.1
2015-May-18 05:33N 45°47' W 124°53'9 9.0
2015-May-18 04:33N 45°38' W 124°53'  
2015-May-15 02:22N 45°26' W 124°33'6 7.2
2015-May-15 01:33N 45°31' W 124°38'1 0.9
2015-May-15 00:28N 45°31' W 124°37'4 4.1
2015-May-14 23:34N 45°34' W 124°40'5 4.8
2015-May-14 22:33N 45°38' W 124°42'7 6.7
2015-May-14 21:33N 45°45' W 124°43'8 8.5
2015-May-14 20:33N 45°53' W 124°44'9 8.9
2015-May-14 19:33N 46°02' W 124°45'9 8.8
2015-May-14 18:33N 46°11' W 124°40'7 7.1
2015-May-14 17:33N 46°18' W 124°40'8 8.3
2015-May-14 16:33N 46°25' W 124°34'9 8.5
2015-May-14 15:33N 46°34' W 124°33'8 8.3
2015-May-14 14:33N 46°31' W 124°44'8 7.9
2015-May-14 13:33N 46°33' W 124°55'9 9.1
2015-May-14 12:33N 46°40' W 125°02'92 4.3
2015-May-13 15:15N 48°12' W 125°10'7 9.1
2015-May-13 14:27N 48°18' W 125°03'8 9.4
2015-May-13 13:33N 48°23' W 124°53'9 9.1
2015-May-13 12:33N 48°25' W 124°40'1111.3
2015-May-13 11:33N 48°21' W 124°25'1111.2
2015-May-13 10:33N 48°16' W 124°09'1111.0
2015-May-13 09:32N 48°12' W 123°54'411.3
2015-May-13 09:13N 48°12' W 123°48'710.2
2015-May-13 08:33N 48°12' W 123°38'210.2
2015-May-13 08:23N 48°12' W 123°36'8 9.7
2015-May-13 07:33N 48°12' W 123°24'9 8.9
2015-May-13 06:33N 48°12' W 123°10'8 8.3
2015-May-13 05:33N 48°11' W 122°58'17 7.2
2015-May-13 03:10N 48°02' W 122°37'6 9.2
2015-May-13 02:33N 47°57' W 122°31'3 9.5
2015-May-13 02:17N 47°55' W 122°28'710.4
2015-May-13 01:33N 47°48' W 122°26'0 8.0
2015-May-13 01:32N 47°48' W 122°26'8 8.1
2015-May-13 00:32N 47°40' W 122°24'0 0.0
2015-May-13 00:31N 47°40' W 122°24'0 0.3
2015-May-12 23:33N 47°40' W 122°23'0 0.0
2015-May-12 23:31N 47°40' W 122°23'0 0.0
2015-May-12 22:33N 47°40' W 122°23'0 0.0
2015-May-12 22:30N 47°40' W 122°23'  
Track history (hours):
 
Tides and Currents Weather Stations Pressure Air Temp Water Temp Dewpoint Dewpoint Depression Visibility Wind Speed Wind Dir Waves Ship Positions

Arctic Fury

Owner: Fury Group Inc, Seattle, WA. More information available from US FCC via Universal Licensing System and Coast Guard Vessel Documentation Center.

Last reported at 2015-May-22 22:29 UTC. Time now 2015-May-22 23:45 UTC.
Position N 47°08' W 124°59'.

Length 43 m; draft 5 m.

Type: Fishing. MMSI: 366468000.

Date/timePositionNaut miles runAvg speedWind from/ knotsBaromVisibWave heightAir tempDewpointWater temp
2015-May-22 22:29N 47°08' W 124°59'8 8.6
2015-May-22 21:33N 47°15' W 124°54'4 8.8
2015-May-22 21:08N 47°18' W 124°52'6 9.0
2015-May-22 20:27N 47°24' W 124°49'1 1.1
2015-May-22 19:32N 47°23' W 124°48'4 4.0
2015-May-22 18:33N 47°27' W 124°50'8 8.3
2015-May-22 17:32N 47°31' W 125°01'7 6.2
2015-May-22 16:29N 47°37' W 125°06'11 9.2
2015-May-22 15:15N 47°48' W 125°09'6 3.3
2015-May-22 13:20N 47°53' W 125°14'5 2.8
2015-May-22 11:30N 47°50' W 125°08'2 0.5
2015-May-22 07:29N 47°51' W 125°10'1 1.1
2015-May-22 06:33N 47°51' W 125°12'2 0.4
2015-May-22 03:08N 47°53' W 125°13'2 0.8
2015-May-22 00:09N 47°51' W 125°15'1 1.4
2015-May-21 23:33N 47°52' W 125°15'1 0.5
2015-May-21 21:32N 47°53' W 125°15'2 3.3
2015-May-21 20:50N 47°51' W 125°12'1 3.2
2015-May-21 20:31N 47°51' W 125°11'3 3.3
2015-May-21 19:33N 47°49' W 125°07'0 0.3
2015-May-21 18:24N 47°49' W 125°07'3 3.5
2015-May-21 17:33N 47°50' W 125°11'3 2.7
2015-May-21 16:37N 47°52' W 125°13'0 2.0
2015-May-21 16:33N 47°52' W 125°13'3 2.9
2015-May-21 15:33N 47°55' W 125°15'2 2.6
2015-May-21 14:52N 47°56' W 125°17'2 4.7
2015-May-21 14:31N 47°55' W 125°16'5 4.7
2015-May-21 13:33N 47°51' W 125°11'1 3.1
2015-May-21 13:11N 47°51' W 125°10'4 2.3
2015-May-21 11:33N 47°52' W 125°14'1 0.6
2015-May-21 10:33N 47°53' W 125°15'1 0.6
2015-May-21 09:30N 47°53' W 125°16'1 0.6
2015-May-21 07:19N 47°54' W 125°17'2 2.7
2015-May-21 06:33N 47°53' W 125°16'3 2.9
2015-May-21 05:31N 47°51' W 125°12'1 0.9
2015-May-21 04:18N 47°50' W 125°10'3 2.7
2015-May-21 03:23N 47°52' W 125°13'2 0.2
2015-May-20 18:04N 47°51' W 125°11'0 0.0
2015-May-20 18:04N 47°51' W 125°11'3 1.1
2015-May-20 15:25N 47°49' W 125°07'5 5.8
2015-May-20 14:31N 47°53' W 125°13'17 3.4
2015-May-20 09:23N 47°37' W 125°02'4 0.5
2015-May-20 01:16N 47°33' W 125°05'2 2.7
2015-May-20 00:33N 47°35' W 125°06'3 2.9
2015-May-19 23:33N 47°37' W 125°07'2 0.1
2015-May-19 06:05N 47°40' W 125°08'34 2.2
2015-May-18 14:28N 47°08' W 124°50'10 9.2
2015-May-18 13:24N 46°58' W 124°52'8 9.2
2015-May-18 12:30N 46°50' W 124°53'8 8.8
2015-May-18 11:33N 46°42' W 124°52'9 9.1
2015-May-18 10:33N 46°33' W 124°52'9 9.1
2015-May-18 09:33N 46°24' W 124°52'9 9.3
2015-May-18 08:33N 46°14' W 124°52'9 9.2
2015-May-18 07:33N 46°05' W 124°52'10 9.2
2015-May-18 06:30N 45°55' W 124°53'9 9.1
2015-May-18 05:33N 45°47' W 124°53'9 9.0
2015-May-18 04:33N 45°38' W 124°53'  
2015-May-15 02:22N 45°26' W 124°33'6 7.2
2015-May-15 01:33N 45°31' W 124°38'1 0.9
2015-May-15 00:28N 45°31' W 124°37'4 4.1
2015-May-14 23:34N 45°34' W 124°40'5 4.8
2015-May-14 22:33N 45°38' W 124°42'7 6.7
2015-May-14 21:33N 45°45' W 124°43'8 8.5
2015-May-14 20:33N 45°53' W 124°44'9 8.9
2015-May-14 19:33N 46°02' W 124°45'9 8.8
2015-May-14 18:33N 46°11' W 124°40'7 7.1
2015-May-14 17:33N 46°18' W 124°40'8 8.3
2015-May-14 16:33N 46°25' W 124°34'9 8.5
2015-May-14 15:33N 46°34' W 124°33'8 8.3
2015-May-14 14:33N 46°31' W 124°44'8 7.9
2015-May-14 13:33N 46°33' W 124°55'9 9.1
2015-May-14 12:33N 46°40' W 125°02'92 4.3
2015-May-13 15:15N 48°12' W 125°10'7 9.1
2015-May-13 14:27N 48°18' W 125°03'8 9.4
2015-May-13 13:33N 48°23' W 124°53'9 9.1
2015-May-13 12:33N 48°25' W 124°40'1111.3
2015-May-13 11:33N 48°21' W 124°25'1111.2
2015-May-13 10:33N 48°16' W 124°09'1111.0
2015-May-13 09:32N 48°12' W 123°54'411.3
2015-May-13 09:13N 48°12' W 123°48'710.2
2015-May-13 08:33N 48°12' W 123°38'210.2
2015-May-13 08:23N 48°12' W 123°36'8 9.7
2015-May-13 07:33N 48°12' W 123°24'9 8.9
2015-May-13 06:33N 48°12' W 123°10'8 8.3
2015-May-13 05:33N 48°11' W 122°58'17 7.2
2015-May-13 03:10N 48°02' W 122°37'6 9.2
2015-May-13 02:33N 47°57' W 122°31'3 9.5
2015-May-13 02:17N 47°55' W 122°28'710.4
2015-May-13 01:33N 47°48' W 122°26'0 8.0
2015-May-13 01:32N 47°48' W 122°26'8 8.1
2015-May-13 00:32N 47°40' W 122°24'0 0.0
2015-May-13 00:31N 47°40' W 122°24'0 0.3
2015-May-12 23:33N 47°40' W 122°23'0 0.0
2015-May-12 23:31N 47°40' W 122°23'0 0.0
2015-May-12 22:33N 47°40' W 122°23'0 0.0
2015-May-12 22:30N 47°40' W 122°23'  

Dump ship's entire track history